Time;durP1;ratioP1;P1;durP2;ratioP2;P2;SDS_P1;SDS_P2;PMS_P1;PMS_P2;Temp;Humidity;BMP_temperature;BMP_pressure;BME280_temperature;BME280_humidity;BME280_pressure;Samples;Min_cycle;Max_cycle;Signal;HPM_P1;HPM_P2
2022/09/22 00:02:13;;;;;;;6.65;1.70;;;;;;;;;;5109290;28;20514;-73
2022/09/22 00:04:45;;;;;;;5.65;1.60;;;;;;;;;;5108714;28;20058;-72
2022/09/22 00:07:17;;;;;;;5.78;1.60;;;;;;;;;;5108409;28;20055;-74
2022/09/22 00:09:48;;;;;;;7.00;1.80;;;;;;;;;;5109277;28;20048;-75
2022/09/22 00:12:17;;;;;;;;;;;;;;;;;;5110226;28;20051;-72
2022/09/22 00:14:47;;;;;;;5.90;2.03;;;;;;;;;;5109410;28;19931;-72
2022/09/22 00:17:16;;;;;;;2.50;1.50;;;;;;;;;;5109322;28;20071;-74
2022/09/22 00:19:46;;;;;;;6.07;2.45;;;;;;;;;;5109164;28;20048;-75
2022/09/22 00:22:16;;;;;;;4.18;1.58;;;;;;;;;;5109371;28;20047;-73
2022/09/22 00:24:46;;;;;;;5.05;1.73;;;;;;;;;;5108813;28;20164;-71
2022/09/22 00:27:16;;;;;;;5.72;2.20;;;;;;;;;;5108324;28;20418;-76
2022/09/22 00:29:46;;;;;;;5.75;1.90;;;;;;;;;;5108289;28;20855;-73
2022/09/22 00:32:17;;;;;;;6.22;2.50;;;;;;;;;;5109047;28;20520;-72
2022/09/22 00:34:47;;;;;;;5.75;2.03;;;;;;;;;;5108170;28;20044;-75
2022/09/22 00:37:17;;;;;;;5.20;2.20;;;;;;;;;;5109024;28;20047;-73
2022/09/22 00:39:47;;;;;;;4.90;1.67;;;;;;;;;;5108285;28;20063;-73
2022/09/22 00:42:18;;;;;;;4.63;1.60;;;;;;;;;;5109749;28;20044;-74
2022/09/22 00:44:49;;;;;;;7.38;2.15;;;;;;;;;;5108820;28;20506;-72
2022/09/22 00:47:39;;;;;;;4.38;2.20;;;;;;;;;;5108808;28;20517;-74
2022/09/22 00:50:12;;;;;;;9.68;2.15;;;;;;;;;;5107785;28;20059;-71
2022/09/22 00:52:47;;;;;;;5.03;2.13;;;;;;;;;;5109203;28;20043;-74
2022/09/22 00:55:34;;;;;;;6.43;1.60;;;;;;;;;;5108305;28;20047;-75
2022/09/22 00:58:08;;;;;;;6.85;1.88;;;;;;;;;;5107432;28;20506;-71
2022/09/22 01:00:39;;;;;;;5.05;1.92;;;;;;;;;;5108148;28;20051;-72
2022/09/22 01:03:13;;;;;;;5.20;1.67;;;;;;;;;;5107395;28;20055;-75
2022/09/22 01:05:46;;;;;;;10.40;1.60;;;;;;;;;;5107657;28;20059;-70
2022/09/22 01:08:19;;;;;;;6.75;1.88;;;;;;;;;;5108247;28;20050;-71
2022/09/22 01:10:53;;;;;;;4.82;2.00;;;;;;;;;;5108374;28;20043;-77
2022/09/22 01:13:56;;;;;;;4.38;1.77;;;;;;;;;;5107943;28;20079;-74
2022/09/22 01:16:41;;;;;;;3.75;1.80;;;;;;;;;;5114027;27;20393;-73
2022/09/22 01:19:31;;;;;;;5.10;1.90;;;;;;;;;;5121918;27;20055;-76
2022/09/22 01:22:36;;;;;;;6.22;1.90;;;;;;;;;;5106578;28;20429;-73
2022/09/22 01:25:33;;;;;;;4.32;1.70;;;;;;;;;;5104406;28;20066;-73
2022/09/22 01:28:52;;;;;;;7.75;1.92;;;;;;;;;;5105511;28;20485;-75
2022/09/22 01:31:36;;;;;;;7.85;2.00;;;;;;;;;;5104968;28;20499;-75
2022/09/22 01:34:21;;;;;;;10.07;2.40;;;;;;;;;;5104950;28;20059;-75
2022/09/22 01:37:30;;;;;;;6.63;2.40;;;;;;;;;;5105880;28;20111;-73
2022/09/22 01:40:12;;;;;;;6.57;1.85;;;;;;;;;;5107739;28;20685;-72
2022/09/22 01:42:48;;;;;;;6.90;1.92;;;;;;;;;;5106277;28;20048;-71
2022/09/22 01:45:28;;;;;;;7.57;2.33;;;;;;;;;;5106425;28;20355;-76
2022/09/22 01:48:15;;;;;;;6.32;2.28;;;;;;;;;;5107687;28;20048;-72
2022/09/22 01:50:59;;;;;;;8.30;2.45;;;;;;;;;;5107153;28;20055;-76
2022/09/22 01:53:38;;;;;;;13.88;1.98;;;;;;;;;;5107404;28;20044;-73
2022/09/22 01:56:12;;;;;;;7.93;1.92;;;;;;;;;;5107344;28;20440;-73
2022/09/22 01:58:51;;;;;;;4.82;1.90;;;;;;;;;;5105368;28;20055;-72
2022/09/22 02:01:34;;;;;;;6.45;2.53;;;;;;;;;;5107542;28;20050;-73
2022/09/22 02:04:44;;;;;;;6.95;1.85;;;;;;;;;;5107589;28;20580;-72
2022/09/22 02:07:23;;;;;;;7.68;1.90;;;;;;;;;;5107594;28;20043;-76
2022/09/22 02:09:55;;;;;;;5.70;2.08;;;;;;;;;;5107193;28;20048;-72
2022/09/22 02:12:28;;;;;;;7.65;1.70;;;;;;;;;;5107761;28;20548;-73
2022/09/22 02:14:59;;;;;;;5.00;2.10;;;;;;;;;;5105857;28;20506;-74
2022/09/22 02:17:31;;;;;;;5.55;2.15;;;;;;;;;;5106977;28;20050;-73
2022/09/22 02:20:05;;;;;;;2.97;1.90;;;;;;;;;;5104819;28;20051;-74
2022/09/22 02:22:36;;;;;;;4.20;1.90;;;;;;;;;;5106494;28;20429;-73
2022/09/22 02:25:09;;;;;;;5.25;2.00;;;;;;;;;;5105638;28;20055;-72
2022/09/22 02:27:41;;;;;;;5.90;2.30;;;;;;;;;;5105696;28;20055;-72
2022/09/22 02:30:14;;;;;;;7.85;2.10;;;;;;;;;;5104838;28;20635;-75
2022/09/22 02:32:48;;;;;;;12.68;2.47;;;;;;;;;;5107257;28;20518;-73
2022/09/22 02:35:24;;;;;;;6.38;2.25;;;;;;;;;;5107503;28;20063;-70
2022/09/22 02:38:18;;;;;;;10.23;2.80;;;;;;;;;;5106947;28;20521;-74
2022/09/22 02:41:00;;;;;;;4.72;2.20;;;;;;;;;;5106975;28;20043;-71
2022/09/22 02:43:37;;;;;;;6.28;2.38;;;;;;;;;;5106680;28;20046;-72
2022/09/22 02:46:22;;;;;;;7.40;2.50;;;;;;;;;;5106902;28;20043;-74
2022/09/22 02:49:00;;;;;;;5.15;2.40;;;;;;;;;;5106878;28;20043;-70
2022/09/22 02:51:33;;;;;;;12.02;3.20;;;;;;;;;;5106969;28;20055;-73
2022/09/22 02:54:05;;;;;;;19.10;2.83;;;;;;;;;;5104356;28;20507;-74
2022/09/22 02:56:35;;;;;;;5.97;2.17;;;;;;;;;;5106737;28;20047;-74
2022/09/22 02:59:05;;;;;;;;;;;;;;;;;;5111653;28;20055;-71
2022/09/22 03:01:35;;;;;;;6.82;2.33;;;;;;;;;;5111299;28;19924;-72
2022/09/22 03:04:06;;;;;;;8.77;2.20;;;;;;;;;;5110228;28;20051;-73
2022/09/22 03:06:37;;;;;;;4.65;2.00;;;;;;;;;;5108386;28;20055;-74
2022/09/22 03:09:07;;;;;;;4.30;2.22;;;;;;;;;;5110579;28;20039;-73
2022/09/22 03:11:36;;;;;;;;;;;;;;;;;;5111285;28;20048;-74
2022/09/22 03:14:06;;;;;;;6.88;1.92;;;;;;;;;;5110305;28;19929;-73
2022/09/22 03:16:36;;;;;;;9.73;2.40;;;;;;;;;;5110601;28;20512;-72
2022/09/22 03:19:05;;;;;;;;;;;;;;;;;;5110954;28;20040;-73
2022/09/22 03:21:35;;;;;;;8.25;2.15;;;;;;;;;;5110280;28;20398;-74
2022/09/22 03:24:04;;;;;;;;;;;;;;;;;;5111735;28;20039;-77
2022/09/22 03:26:34;;;;;;;4.72;1.70;;;;;;;;;;5110286;28;19924;-73
2022/09/22 03:29:03;;;;;;;;;;;;;;;;;;5111542;28;20058;-75
2022/09/22 03:31:33;;;;;;;9.18;2.33;;;;;;;;;;5109893;28;19931;-79
2022/09/22 03:34:03;;;;;;;6.20;2.75;;;;;;;;;;5110208;28;20363;-75
2022/09/22 03:36:32;;;;;;;;;;;;;;;;;;5110802;28;20040;-72
2022/09/22 03:39:01;;;;;;;5.43;2.03;;;;;;;;;;5109951;28;19928;-75
2022/09/22 03:41:31;;;;;;;;;;;;;;;;;;5110694;28;20050;-76
2022/09/22 03:44:01;;;;;;;6.95;2.55;;;;;;;;;;5109626;28;20377;-73
2022/09/22 03:46:31;;;;;;;11.07;2.50;;;;;;;;;;5110227;28;20039;-73
2022/09/22 03:49:02;;;;;;;8.90;3.00;;;;;;;;;;5109995;28;20050;-75
2022/09/22 03:51:33;;;;;;;10.98;4.15;;;;;;;;;;5107565;28;20405;-75
2022/09/22 03:54:03;;;;;;;7.85;2.83;;;;;;;;;;5108298;28;20066;-73
2022/09/22 03:56:33;;;;;;;10.68;3.20;;;;;;;;;;5110066;28;20051;-76
2022/09/22 03:59:02;;;;;;;;;;;;;;;;;;5110219;28;20046;-76
2022/09/22 04:01:32;;;;;;;7.50;2.72;;;;;;;;;;5110068;28;19923;-77
2022/09/22 04:04:03;;;;;;;10.98;3.10;;;;;;;;;;5109760;28;20043;-74
2022/09/22 04:06:32;;;;;;;7.65;2.85;;;;;;;;;;5108599;28;20054;-72
2022/09/22 04:09:03;;;;;;;9.50;2.97;;;;;;;;;;5108977;28;20052;-73
2022/09/22 04:11:34;;;;;;;10.18;2.80;;;;;;;;;;5109589;28;20542;-76
2022/09/22 04:14:04;;;;;;;4.53;2.50;;;;;;;;;;5109090;28;20050;-73
2022/09/22 04:16:34;;;;;;;5.35;3.50;;;;;;;;;;5109497;28;20047;-78
2022/09/22 04:19:03;;;;;;;9.30;3.30;;;;;;;;;;5108238;28;20502;-75
2022/09/22 04:21:33;;;;;;;;;;;;;;;;;;5109564;28;20117;-76
2022/09/22 04:24:03;;;;;;;6.00;3.28;;;;;;;;;;5109759;28;19919;-77
2022/09/22 04:26:33;;;;;;;8.85;3.75;;;;;;;;;;5109797;28;20047;-77
2022/09/22 04:29:02;;;;;;;8.73;2.20;;;;;;;;;;5109164;28;20410;-75
2022/09/22 04:31:32;;;;;;;;;;;;;;;;;;5109905;28;20536;-74
2022/09/22 04:34:02;;;;;;;11.50;3.03;;;;;;;;;;5109273;28;19924;-72
2022/09/22 04:36:35;;;;;;;7.90;2.60;;;;;;;;;;5109328;28;20402;-72
2022/09/22 04:39:04;;;;;;;;;;;;;;;;;;5109474;28;20058;-73
2022/09/22 04:41:34;;;;;;;6.50;2.55;;;;;;;;;;5108947;28;19923;-73
2022/09/22 04:44:04;;;;;;;11.80;3.22;;;;;;;;;;5109111;28;20418;-73
2022/09/22 04:46:35;;;;;;;10.50;3.10;;;;;;;;;;5108853;28;20040;-74
2022/09/22 04:49:04;;;;;;;;;;;;;;;;;;5109397;28;20486;-76
2022/09/22 04:51:33;;;;;;;6.63;2.85;;;;;;;;;;5108867;28;19929;-76
2022/09/22 04:54:03;;;;;;;;;;;;;;;;;;5109797;28;20048;-74
2022/09/22 04:56:33;;;;;;;9.82;2.53;;;;;;;;;;5108769;28;19926;-76
2022/09/22 04:59:03;;;;;;;7.53;3.05;;;;;;;;;;5106137;28;20043;-74
2022/09/22 05:01:32;;;;;;;;;;;;;;;;;;5109496;28;20062;-74
2022/09/22 05:04:02;;;;;;;5.00;3.33;;;;;;;;;;5108389;28;20271;-72
2022/09/22 05:06:31;;;;;;;;;;;;;;;;;;5106870;28;20047;-73
2022/09/22 05:09:02;;;;;;;8.02;2.55;;;;;;;;;;5108543;28;19923;-78
2022/09/22 05:11:31;;;;;;;6.93;3.40;;;;;;;;;;5108193;28;20052;-75
2022/09/22 05:14:01;;;;;;;;;;;;;;;;;;5109327;28;20494;-74
2022/09/22 05:16:32;;;;;;;6.15;2.90;;;;;;;;;;5108360;28;19932;-71
2022/09/22 05:19:03;;;;;;;5.68;2.60;;;;;;;;;;5107978;28;20047;-74
2022/09/22 05:21:33;;;;;;;;;;;;;;;;;;5108730;28;20054;-75
2022/09/22 05:24:03;;;;;;;7.25;2.63;;;;;;;;;;5108099;28;19924;-74
2022/09/22 05:26:33;;;;;;;7.45;3.15;;;;;;;;;;5108169;28;20050;-77
2022/09/22 05:29:05;;;;;;;;;;;;;;;;;;5108340;28;20048;-77
2022/09/22 05:31:35;;;;;;;4.63;2.80;;;;;;;;;;5107552;28;20309;-73
2022/09/22 05:34:06;;;;;;;9.93;3.08;;;;;;;;;;5107973;28;20052;-74
2022/09/22 05:36:37;;;;;;;5.00;2.65;;;;;;;;;;5107906;28;20048;-72
2022/09/22 05:39:08;;;;;;;6.90;3.20;;;;;;;;;;5106064;28;20047;-71
2022/09/22 05:41:38;;;;;;;10.10;2.95;;;;;;;;;;5108461;28;20047;-77
2022/09/22 05:44:07;;;;;;;10.70;3.60;;;;;;;;;;5107965;28;20043;-74
2022/09/22 05:46:37;;;;;;;;;;;;;;;;;;5107466;28;20058;-72
2022/09/22 05:49:06;;;;;;;10.20;3.25;;;;;;;;;;5107396;28;19920;-74
2022/09/22 05:51:36;;;;;;;4.95;3.08;;;;;;;;;;5107920;28;20062;-75
2022/09/22 05:54:06;;;;;;;;;;;;;;;;;;5107389;28;20142;-75
2022/09/22 05:56:35;;;;;;;4.82;2.67;;;;;;;;;;5107345;28;19930;-72
2022/09/22 05:59:06;;;;;;;9.98;2.95;;;;;;;;;;5107946;28;20070;-71
2022/09/22 06:01:37;;;;;;;8.13;3.50;;;;;;;;;;5107906;28;20067;-75
2022/09/22 06:04:07;;;;;;;6.65;3.45;;;;;;;;;;5107467;28;20403;-72
2022/09/22 06:06:37;;;;;;;8.63;3.80;;;;;;;;;;5107074;28;20044;-75
2022/09/22 06:09:07;;;;;;;7.68;3.70;;;;;;;;;;5106792;28;20059;-74
2022/09/22 06:11:37;;;;;;;8.85;3.33;;;;;;;;;;5107099;28;20643;-74
2022/09/22 06:14:06;;;;;;;;;;;;;;;;;;5107809;28;20430;-75
2022/09/22 06:16:36;;;;;;;9.60;3.63;;;;;;;;;;5107204;28;20255;-75
2022/09/22 06:19:05;;;;;;;;;;;;;;;;;;5089119;28;20052;-74
2022/09/22 06:21:35;;;;;;;9.25;3.72;;;;;;;;;;5107131;28;19931;-73
2022/09/22 06:24:05;;;;;;;;;;;;;;;;;;5107171;28;20047;-76
2022/09/22 06:26:35;;;;;;;7.20;2.65;;;;;;;;;;5107214;28;20390;-76
2022/09/22 06:29:05;;;;;;;5.32;3.30;;;;;;;;;;5105546;28;20052;-76
2022/09/22 06:31:35;;;;;;;9.30;3.10;;;;;;;;;;5106809;28;20048;-70
2022/09/22 06:34:04;;;;;;;6.45;2.85;;;;;;;;;;5106877;28;20051;-74
2022/09/22 06:36:35;;;;;;;7.00;3.30;;;;;;;;;;5106528;28;20043;-73
2022/09/22 06:39:05;;;;;;;5.55;2.75;;;;;;;;;;5107150;28;20056;-73
2022/09/22 06:41:35;;;;;;;;;;;;;;;;;;5107474;28;20402;-73
2022/09/22 06:44:11;;;;;;;9.10;3.00;;;;;;;;;;5105308;28;20378;-75
2022/09/22 06:46:42;;;;;;;6.53;2.88;;;;;;;;;;5107326;28;20039;-72
2022/09/22 06:49:12;;;;;;;9.90;2.60;;;;;;;;;;5106971;28;20047;-77
2022/09/22 06:51:42;;;;;;;9.80;3.03;;;;;;;;;;5106964;28;20517;-73
2022/09/22 06:54:13;;;;;;;9.50;3.05;;;;;;;;;;5106969;28;20040;-76
2022/09/22 06:56:42;;;;;;;5.95;2.63;;;;;;;;;;5106743;28;20051;-75
2022/09/22 06:59:13;;;;;;;6.95;3.20;;;;;;;;;;5106673;28;20402;-75
2022/09/22 07:01:44;;;;;;;7.13;3.28;;;;;;;;;;5106508;28;20055;-77
2022/09/22 07:04:14;;;;;;;9.48;3.20;;;;;;;;;;5106788;28;20421;-76
2022/09/22 07:06:44;;;;;;;10.00;3.20;;;;;;;;;;5106964;28;20047;-78
2022/09/22 07:09:15;;;;;;;6.25;3.22;;;;;;;;;;5106154;28;20048;-73
2022/09/22 07:11:46;;;;;;;6.35;3.20;;;;;;;;;;5106675;28;20090;-75
2022/09/22 07:14:19;;;;;;;9.07;3.83;;;;;;;;;;5105013;28;20047;-78
2022/09/22 07:16:51;;;;;;;5.25;3.30;;;;;;;;;;5107449;28;20043;-73
2022/09/22 07:19:21;;;;;;;9.80;3.08;;;;;;;;;;5106432;28;20046;-75
2022/09/22 07:21:50;;;;;;;;;;;;;;;;;;5106090;28;20043;-74
2022/09/22 07:24:19;;;;;;;5.65;2.83;;;;;;;;;;5106583;28;19931;-76
2022/09/22 07:26:50;;;;;;;6.95;2.72;;;;;;;;;;5104762;28;20062;-73
2022/09/22 07:29:19;;;;;;;6.82;2.97;;;;;;;;;;5106477;28;20052;-75
2022/09/22 07:31:50;;;;;;;;;;;;;;;;;;5106841;28;20054;-75
2022/09/22 07:34:20;;;;;;;7.93;3.03;;;;;;;;;;5105955;28;19920;-75
2022/09/22 07:36:49;;;;;;;;;;;;;;;;;;5107164;28;20048;-76
2022/09/22 07:39:19;;;;;;;9.20;3.10;;;;;;;;;;5104734;28;20385;-71
2022/09/22 07:41:48;;;;;;;;;;;;;;;;;;5107131;28;20040;-73
2022/09/22 07:47:12;;;;;;;7.28;2.92;;;;;;;;;;5109901;28;20046;-73
2022/09/22 07:49:43;;;;;;;12.20;3.53;;;;;;;;;;5110076;28;20044;-76
2022/09/22 07:52:14;;;;;;;10.38;3.25;;;;;;;;;;5110305;28;20109;-75
2022/09/22 07:54:44;;;;;;;8.98;3.80;;;;;;;;;;5110200;28;20055;-76
2022/09/22 07:57:15;;;;;;;5.72;3.33;;;;;;;;;;5109633;28;20057;-74
2022/09/22 07:59:44;;;;;;;;;;;;;;;;;;5108860;28;20051;-76
2022/09/22 08:02:14;;;;;;;9.18;3.42;;;;;;;;;;5108094;28;19923;-75
2022/09/22 08:04:44;;;;;;;9.40;3.40;;;;;;;;;;5109577;28;20055;-73
2022/09/22 08:07:14;;;;;;;7.72;3.70;;;;;;;;;;5110227;28;20051;-75
2022/09/22 08:09:44;;;;;;;6.30;3.33;;;;;;;;;;5109105;28;20055;-77
2022/09/22 08:12:14;;;;;;;7.53;3.53;;;;;;;;;;5109711;28;20051;-73
2022/09/22 08:14:46;;;;;;;7.32;3.60;;;;;;;;;;5110191;28;20059;-77
2022/09/22 08:17:16;;;;;;;7.35;4.00;;;;;;;;;;5109940;28;20040;-76
2022/09/22 08:19:46;;;;;;;9.20;4.38;;;;;;;;;;5109417;28;20047;-77
2022/09/22 08:22:17;;;;;;;8.15;3.53;;;;;;;;;;5108858;28;20058;-78
2022/09/22 08:24:47;;;;;;;13.10;4.20;;;;;;;;;;5109401;28;20741;-77
2022/09/22 08:27:17;;;;;;;6.35;3.40;;;;;;;;;;5109204;28;20047;-78
2022/09/22 08:29:47;;;;;;;9.05;3.92;;;;;;;;;;5107898;28;20051;-74
2022/09/22 08:32:18;;;;;;;8.25;4.00;;;;;;;;;;5109313;28;20047;-74
2022/09/22 08:34:48;;;;;;;;;;;;;;;;;;5109792;28;20047;-77
2022/09/22 08:37:19;;;;;;;5.03;3.50;;;;;;;;;;5108615;28;20279;-76
2022/09/22 08:39:50;;;;;;;12.65;4.68;;;;;;;;;;5109128;28;20410;-74
2022/09/22 08:42:22;;;;;;;5.55;3.55;;;;;;;;;;5109314;28;20054;-77
2022/09/22 08:45:05;;;;;;;10.50;4.00;;;;;;;;;;5109012;28;20412;-75
2022/09/22 08:54:04;;;;;;;7.80;3.30;;;;;;;;;;5108832;28;20498;-75
2022/09/22 08:56:45;;;;;;;8.45;3.75;;;;;;;;;;5108239;28;20425;-76
2022/09/22 08:59:22;;;;;;;8.70;4.13;;;;;;;;;;5108476;28;20609;-76
2022/09/22 09:02:40;;;;;;;8.32;3.50;;;;;;;;;;5106709;28;20505;-76
2022/09/22 09:05:37;;;;;;;7.00;3.95;;;;;;;;;;5090760;28;20063;-74
2022/09/22 09:08:42;;;;;;;9.77;3.88;;;;;;;;;;5079786;28;20067;-77
2022/09/22 09:11:35;;;;;;;10.63;3.92;;;;;;;;;;5108451;28;20043;-76
2022/09/22 09:14:05;;;;;;;8.05;3.22;;;;;;;;;;5108819;28;20078;-74
2022/09/22 09:16:53;;;;;;;;;;;;;;;;;;5107298;28;20052;-75
2022/09/22 09:19:33;;;;;;;8.70;3.47;;;;;;;;;;5106769;28;20386;-76
2022/09/22 09:22:30;;;;;;;12.15;4.22;;;;;;;;;;5107982;28;20043;-73
2022/09/22 09:25:21;;;;;;;6.63;3.53;;;;;;;;;;5101351;28;20064;-74
2022/09/22 09:28:03;;;;;;;7.03;3.22;;;;;;;;;;5108433;28;20524;-73
2022/09/22 09:30:51;;;;;;;7.82;4.20;;;;;;;;;;5106151;28;20048;-73
2022/09/22 09:33:45;;;;;;;15.00;3.70;;;;;;;;;;5107811;28;20067;-72
2022/09/22 09:36:21;;;;;;;8.43;4.47;;;;;;;;;;5108751;28;20051;-75
2022/09/22 09:38:56;;;;;;;12.23;4.40;;;;;;;;;;5108000;28;20048;-73
2022/09/22 09:41:32;;;;;;;14.52;4.55;;;;;;;;;;5107477;28;20043;-74
2022/09/22 09:44:04;;;;;;;10.02;5.25;;;;;;;;;;5105812;28;20066;-73
2022/09/22 09:47:05;;;;;;;11.05;5.10;;;;;;;;;;5106104;28;20047;-74
2022/09/22 09:49:35;;;;;;;10.30;4.82;;;;;;;;;;5107326;28;20042;-73
2022/09/22 09:52:11;;;;;;;8.88;5.40;;;;;;;;;;5107415;28;20791;-74
2022/09/22 09:54:46;;;;;;;9.60;4.10;;;;;;;;;;5107512;28;20051;-73
2022/09/22 09:57:18;;;;;;;11.25;5.53;;;;;;;;;;5107594;28;20043;-78
2022/09/22 10:00:30;;;;;;;8.80;4.60;;;;;;;;;;5107783;28;20048;-74
2022/09/22 10:03:23;;;;;;;8.55;5.07;;;;;;;;;;5107945;28;20402;-74
2022/09/22 10:06:03;;;;;;;7.68;3.90;;;;;;;;;;5108059;28;20058;-74
2022/09/22 10:08:44;;;;;;;11.05;4.13;;;;;;;;;;5106970;28;20044;-72
2022/09/22 10:11:15;;;;;;;10.70;4.90;;;;;;;;;;5107345;28;20051;-75
2022/09/22 10:13:55;;;;;;;9.60;4.30;;;;;;;;;;5107520;28;20062;-74
2022/09/22 10:16:29;;;;;;;9.45;4.82;;;;;;;;;;5106954;28;20048;-74
2022/09/22 10:19:03;;;;;;;10.75;5.30;;;;;;;;;;5106694;28;20047;-73
2022/09/22 10:21:36;;;;;;;7.78;4.32;;;;;;;;;;5107050;28;20047;-77
2022/09/22 10:24:27;;;;;;;8.65;5.10;;;;;;;;;;5106971;28;20035;-76
2022/09/22 10:26:58;;;;;;;7.22;4.97;;;;;;;;;;5106842;28;20051;-72
2022/09/22 10:29:35;;;;;;;13.55;5.88;;;;;;;;;;5105135;28;20768;-72
2022/09/22 10:32:15;;;;;;;11.40;5.10;;;;;;;;;;5107080;28;20051;-74
2022/09/22 10:34:49;;;;;;;13.50;5.97;;;;;;;;;;5107473;28;20059;-75
2022/09/22 10:37:29;;;;;;;14.35;5.32;;;;;;;;;;5109314;28;20043;-74
2022/09/22 10:40:13;;;;;;;10.27;5.72;;;;;;;;;;5096764;28;20054;-73
2022/09/22 10:42:44;;;;;;;9.05;4.95;;;;;;;;;;5127297;28;20049;-72
2022/09/22 10:45:18;;;;;;;8.18;5.32;;;;;;;;;;5109519;28;20548;-72
2022/09/22 10:48:01;;;;;;;9.00;5.35;;;;;;;;;;5105233;28;20047;-73
2022/09/22 10:50:56;;;;;;;13.43;6.05;;;;;;;;;;5111915;28;20039;-71
2022/09/22 10:53:41;;;;;;;11.80;6.20;;;;;;;;;;5090387;27;20062;-71
2022/09/22 10:56:29;;;;;;;10.65;5.75;;;;;;;;;;5104870;28;20048;-73
2022/09/22 10:59:17;;;;;;;9.52;5.90;;;;;;;;;;5106742;28;20047;-72
2022/09/22 11:02:11;;;;;;;12.25;6.90;;;;;;;;;;5107367;28;20059;-73
2022/09/22 11:04:53;;;;;;;10.70;6.10;;;;;;;;;;5106881;28;20078;-72
2022/09/22 11:13:23;;;;;;;13.27;6.90;;;;;;;;;;5105626;28;20047;-71
2022/09/22 11:16:12;;;;;;;15.75;7.00;;;;;;;;;;5106438;28;20039;-76
2022/09/22 11:19:09;;;;;;;11.80;7.55;;;;;;;;;;5108695;28;20383;-72
2022/09/22 11:21:58;;;;;;;15.20;8.30;;;;;;;;;;5108825;28;20075;-74
2022/09/22 11:24:47;;;;;;;14.90;8.68;;;;;;;;;;5111072;28;20043;-75
2022/09/22 11:27:35;;;;;;;19.20;9.13;;;;;;;;;;5110566;28;20054;-74
2022/09/22 11:30:10;;;;;;;;;;;;;;;;;;5110857;28;20043;-76
2022/09/22 11:33:13;;;;;;;13.02;7.70;;;;;;;;;;5109922;28;19920;-71
2022/09/22 11:35:59;;;;;;;19.00;10.68;;;;;;;;;;5110049;28;20044;-74
2022/09/22 11:38:53;;;;;;;14.73;8.27;;;;;;;;;;5109848;28;20083;-71
2022/09/22 11:42:01;;;;;;;17.35;9.25;;;;;;;;;;5110419;28;20110;-74
2022/09/22 11:44:42;;;;;;;21.25;9.23;;;;;;;;;;5110292;28;20592;-75
2022/09/22 11:47:38;;;;;;;14.68;8.00;;;;;;;;;;5110186;28;20055;-74
2022/09/22 11:50:18;;;;;;;15.07;9.00;;;;;;;;;;5109892;28;20049;-74
2022/09/22 11:53:10;;;;;;;19.58;9.52;;;;;;;;;;5110058;28;20056;-74
2022/09/22 11:55:58;;;;;;;15.85;8.50;;;;;;;;;;5110150;28;20047;-73
2022/09/22 11:58:31;;;;;;;14.18;8.18;;;;;;;;;;5109931;28;20047;-73
2022/09/22 12:01:09;;;;;;;13.52;7.70;;;;;;;;;;5111124;28;20047;-72
2022/09/22 12:03:49;;;;;;;17.88;7.47;;;;;;;;;;5110476;28;20099;-71
2022/09/22 12:06:28;;;;;;;12.63;7.50;;;;;;;;;;5110003;28;20052;-73
2022/09/22 12:09:26;;;;;;;13.18;7.63;;;;;;;;;;5108281;28;20059;-71
2022/09/22 12:12:02;;;;;;;11.73;7.43;;;;;;;;;;5107053;28;20059;-71
2022/09/22 12:14:33;;;;;;;10.57;5.82;;;;;;;;;;5092731;28;20060;-73
2022/09/22 12:17:35;;;;;;;9.98;7.20;;;;;;;;;;5109887;28;20055;-73
2022/09/22 12:20:14;;;;;;;10.05;6.10;;;;;;;;;;5109930;28;20043;-74
2022/09/22 12:23:10;;;;;;;9.70;6.45;;;;;;;;;;5107950;28;20052;-78
2022/09/22 12:25:53;;;;;;;5.22;3.40;;;;;;;;;;5109608;28;20051;-75
2022/09/22 12:28:31;;;;;;;8.43;4.57;;;;;;;;;;5109546;28;20047;-78
2022/09/22 12:31:31;;;;;;;7.63;4.50;;;;;;;;;;5109839;28;20398;-71
2022/09/22 12:34:04;;;;;;;9.10;4.82;;;;;;;;;;5109519;28;20082;-76
2022/09/22 12:36:38;;;;;;;9.02;4.68;;;;;;;;;;5109513;28;20050;-75
2022/09/22 12:39:11;;;;;;;9.13;5.78;;;;;;;;;;5109340;28;20458;-75
2022/09/22 12:41:59;;;;;;;11.80;6.22;;;;;;;;;;5107321;28;20059;-73
2022/09/22 12:45:00;;;;;;;14.68;5.78;;;;;;;;;;5109588;28;20047;-72
2022/09/22 12:47:41;;;;;;;16.73;6.43;;;;;;;;;;5094710;28;20066;-74
2022/09/22 12:50:23;;;;;;;13.93;5.97;;;;;;;;;;5109155;28;20047;-75
2022/09/22 12:52:53;;;;;;;;;;;;;;;;;;5109607;28;20048;-75
2022/09/22 12:55:28;;;;;;;10.65;5.30;;;;;;;;;;5108478;28;19927;-74
2022/09/22 12:58:00;;;;;;;;;;;;;;;;;;5109537;28;20047;-74
2022/09/22 13:00:42;;;;;;;6.60;4.20;;;;;;;;;;5108910;28;19924;-74
2022/09/22 13:03:29;;;;;;;;;;;;;;;;;;5109572;28;20414;-77
2022/09/22 13:06:21;;;;;;;6.10;2.60;;;;;;;;;;5108586;28;19935;-73
2022/09/22 13:08:54;;;;;;;3.22;1.63;;;;;;;;;;5108244;28;20047;-74
2022/09/22 13:12:01;;;;;;;3.28;1.67;;;;;;;;;;5108822;28;20039;-75
2022/09/22 13:14:58;;;;;;;3.75;2.53;;;;;;;;;;5107851;28;20047;-74
2022/09/22 13:17:49;;;;;;;3.88;2.30;;;;;;;;;;5079858;28;20388;-74
2022/09/22 13:20:23;;;;;;;3.15;2.15;;;;;;;;;;5108201;28;20055;-74
2022/09/22 13:22:54;;;;;;;2.20;1.40;;;;;;;;;;5108447;28;20055;-73
2022/09/22 13:25:28;;;;;;;2.28;1.65;;;;;;;;;;5108845;28;20043;-71
2022/09/22 13:28:13;;;;;;;2.83;1.85;;;;;;;;;;5108101;28;20051;-75
2022/09/22 13:30:45;;;;;;;2.55;1.83;;;;;;;;;;5108063;28;20055;-74
2022/09/22 13:33:24;;;;;;;2.00;1.67;;;;;;;;;;5107849;28;20825;-72
2022/09/22 13:36:03;;;;;;;2.67;1.90;;;;;;;;;;5108113;28;20051;-76
2022/09/22 13:38:49;;;;;;;5.70;2.40;;;;;;;;;;5108659;28;20665;-77
2022/09/22 13:41:26;;;;;;;4.43;2.45;;;;;;;;;;5107171;28;20039;-76
2022/09/22 13:44:06;;;;;;;2.38;1.73;;;;;;;;;;5109196;28;20044;-77
2022/09/22 13:46:45;;;;;;;4.50;1.25;;;;;;;;;;5107971;28;20035;-75
2022/09/22 13:49:38;;;;;;;1.90;1.35;;;;;;;;;;5108160;28;20051;-73
2022/09/22 13:52:18;;;;;;;1.90;1.40;;;;;;;;;;5107942;28;20525;-73
2022/09/22 13:54:54;;;;;;;1.88;1.13;;;;;;;;;;5108080;28;20055;-75
2022/09/22 13:57:33;;;;;;;1.08;0.63;;;;;;;;;;5107583;28;20046;-75
2022/09/22 14:00:07;;;;;;;3.78;1.58;;;;;;;;;;5105734;28;20078;-72
2022/09/22 14:02:44;;;;;;;2.08;1.42;;;;;;;;;;5107774;28;20043;-73
2022/09/22 14:05:24;;;;;;;1.58;0.98;;;;;;;;;;5107220;28;20048;-73
2022/09/22 14:07:57;;;;;;;1.80;0.70;;;;;;;;;;5105843;28;20115;-72
2022/09/22 14:10:48;;;;;;;3.60;1.50;;;;;;;;;;5107275;28;20043;-73
2022/09/22 14:13:37;;;;;;;1.30;1.20;;;;;;;;;;5107386;28;20047;-72
2022/09/22 14:16:20;;;;;;;1.02;0.93;;;;;;;;;;5107246;28;20653;-76
2022/09/22 14:19:06;;;;;;;1.48;1.05;;;;;;;;;;5110487;28;20062;-74
2022/09/22 14:22:04;;;;;;;1.05;0.90;;;;;;;;;;5109531;28;20564;-70
2022/09/22 14:24:38;;;;;;;1.88;1.10;;;;;;;;;;5099929;28;20059;-74
2022/09/22 14:27:18;;;;;;;2.85;0.82;;;;;;;;;;5106831;28;20502;-74
2022/09/22 14:29:51;;;;;;;4.03;1.60;;;;;;;;;;5106984;28;20153;-75
2022/09/22 14:32:38;;;;;;;1.70;1.08;;;;;;;;;;5107280;28;20054;-73
2022/09/22 14:35:42;;;;;;;1.55;0.80;;;;;;;;;;5107117;28;20062;-73
2022/09/22 14:38:18;;;;;;;1.85;0.75;;;;;;;;;;5083856;28;20059;-74
2022/09/22 14:40:53;;;;;;;0.80;0.80;;;;;;;;;;5106982;28;20521;-73
2022/09/22 14:43:40;;;;;;;1.25;0.77;;;;;;;;;;5106896;28;20055;-72
2022/09/22 14:46:42;;;;;;;1.45;0.82;;;;;;;;;;5106415;28;20048;-75
2022/09/22 14:49:38;;;;;;;3.78;0.70;;;;;;;;;;5093255;28;20052;-74
2022/09/22 14:52:30;;;;;;;1.30;0.95;;;;;;;;;;5106773;28;20047;-72
2022/09/22 14:55:28;;;;;;;1.58;0.88;;;;;;;;;;5111535;28;20051;-75
2022/09/22 14:58:02;;;;;;;1.23;0.95;;;;;;;;;;5111644;28;20044;-73
2022/09/22 15:03:27;;;;;;;0.70;0.70;;;;;;;;;;5111076;28;20048;-76
2022/09/22 15:06:13;;;;;;;1.30;0.80;;;;;;;;;;5111127;28;20102;-75
2022/09/22 15:08:48;;;;;;;1.40;0.70;;;;;;;;;;5110738;28;20040;-73
2022/09/22 15:11:18;;;;;;;1.92;1.00;;;;;;;;;;5110896;28;20062;-76
2022/09/22 15:13:50;;;;;;;4.38;1.23;;;;;;;;;;5111287;28;20386;-71
2022/09/22 15:16:42;;;;;;;1.00;0.63;;;;;;;;;;5111069;28;20059;-75
2022/09/22 15:19:13;;;;;;;5.57;2.30;;;;;;;;;;5111455;28;20520;-77
2022/09/22 15:21:49;;;;;;;2.58;1.05;;;;;;;;;;5115063;28;20749;-73
2022/09/22 15:24:25;;;;;;;0.90;0.50;;;;;;;;;;5117576;28;20068;-75
2022/09/22 15:26:56;;;;;;;1.30;0.75;;;;;;;;;;5113131;28;20058;-72
2022/09/22 15:29:26;;;;;;;1.25;0.65;;;;;;;;;;5110307;28;20058;-76
2022/09/22 15:31:55;;;;;;;1.90;0.70;;;;;;;;;;5110755;28;20379;-73
2022/09/22 15:34:25;;;;;;;4.05;0.50;;;;;;;;;;5108578;28;20052;-75
2022/09/22 15:36:56;;;;;;;0.57;0.50;;;;;;;;;;5110316;28;20047;-72
2022/09/22 15:39:25;;;;;;;0.57;0.50;;;;;;;;;;5110067;28;20047;-74
2022/09/22 15:41:55;;;;;;;1.60;0.90;;;;;;;;;;5109954;28;20375;-80
2022/09/22 15:44:26;;;;;;;0.90;0.52;;;;;;;;;;5108598;28;20064;-76
2022/09/22 15:46:59;;;;;;;1.67;0.90;;;;;;;;;;5110651;28;20497;-74
2022/09/22 15:49:33;;;;;;;0.50;0.47;;;;;;;;;;5110688;28;20048;-77
2022/09/22 15:52:04;;;;;;;0.90;0.70;;;;;;;;;;5108664;28;20046;-74
2022/09/22 15:54:33;;;;;;;1.65;0.60;;;;;;;;;;5110016;28;20514;-76
2022/09/22 15:57:04;;;;;;;2.00;0.60;;;;;;;;;;5108624;28;20062;-77
2022/09/22 15:59:37;;;;;;;1.00;0.90;;;;;;;;;;5110887;28;20050;-75
2022/09/22 16:02:11;;;;;;;1.77;0.80;;;;;;;;;;5109824;28;20050;-74
2022/09/22 16:04:41;;;;;;;3.45;1.10;;;;;;;;;;5108610;28;20043;-72
2022/09/22 16:07:12;;;;;;;2.83;1.30;;;;;;;;;;5109884;28;20403;-74